Time;durP1;ratioP1;P1;durP2;ratioP2;P2;SDS_P1;SDS_P2;PMS_P1;PMS_P2;Temp;Humidity;BMP_temperature;BMP_pressure;BME280_temperature;BME280_humidity;BME280_pressure;Samples;Min_cycle;Max_cycle;Signal;HPM_P1;HPM_P2
2022/05/10 00:00:49;;;;;;;10.52;4.35;;;;;;;;;;4969392;28;20105;-58
2022/05/10 00:03:15;;;;;;;10.63;4.68;;;;;;;;;;4968015;28;20054;-58
2022/05/10 00:05:42;;;;;;;13.85;4.50;;;;;;;;;;4968476;28;20046;-58
2022/05/10 00:08:11;;;;;;;13.00;4.47;;;;;;;;;;4969012;28;20051;-58
2022/05/10 00:10:38;;;;;;;11.23;4.00;;;;;;;;;;4968887;28;20059;-57
2022/05/10 00:13:05;;;;;;;10.70;4.38;;;;;;;;;;4969795;28;20055;-58
2022/05/10 00:15:31;;;;;;;8.63;3.97;;;;;;;;;;4969098;28;20062;-58
2022/05/10 00:17:58;;;;;;;11.77;4.43;;;;;;;;;;4968962;28;20042;-58
2022/05/10 00:20:25;;;;;;;13.57;5.15;;;;;;;;;;4968090;28;20051;-58
2022/05/10 00:22:51;;;;;;;9.73;3.88;;;;;;;;;;4969398;28;20050;-58
2022/05/10 00:25:19;;;;;;;16.75;4.72;;;;;;;;;;4968130;28;20380;-58
2022/05/10 00:27:45;;;;;;;12.32;4.47;;;;;;;;;;4969003;28;20042;-57
2022/05/10 00:30:11;;;;;;;15.60;4.60;;;;;;;;;;4968624;28;20110;-58
2022/05/10 00:32:38;;;;;;;8.50;4.25;;;;;;;;;;4968840;28;20077;-58
2022/05/10 00:35:06;;;;;;;13.23;4.82;;;;;;;;;;4968588;28;20050;-58
2022/05/10 00:37:32;;;;;;;9.77;4.43;;;;;;;;;;4969013;28;20054;-58
2022/05/10 00:39:58;;;;;;;16.30;4.20;;;;;;;;;;4967265;28;20051;-58
2022/05/10 00:42:25;;;;;;;12.30;4.43;;;;;;;;;;4968584;28;20090;-58
2022/05/10 00:44:57;;;;;;;13.60;4.30;;;;;;;;;;4967333;28;20051;-58
2022/05/10 00:47:27;;;;;;;7.43;4.40;;;;;;;;;;4968611;28;20038;-57
2022/05/10 00:49:58;;;;;;;12.23;4.55;;;;;;;;;;4967759;28;20043;-58
2022/05/10 00:52:38;;;;;;;12.73;4.40;;;;;;;;;;4966990;28;20118;-58
2022/05/10 00:55:08;;;;;;;10.18;4.20;;;;;;;;;;4967273;28;20051;-58
2022/05/10 00:57:39;;;;;;;20.15;4.70;;;;;;;;;;4968520;28;20038;-58
2022/05/10 01:00:15;;;;;;;10.35;4.28;;;;;;;;;;4968334;28;20061;-58
2022/05/10 01:02:47;;;;;;;10.82;4.65;;;;;;;;;;4968318;28;20149;-58
2022/05/10 01:05:23;;;;;;;10.27;4.05;;;;;;;;;;4967334;28;20126;-58
2022/05/10 01:07:53;;;;;;;9.23;4.60;;;;;;;;;;4968403;28;20074;-58
2022/05/10 01:10:31;;;;;;;8.77;4.90;;;;;;;;;;4967392;28;20050;-58
2022/05/10 01:13:00;;;;;;;12.15;5.10;;;;;;;;;;4967919;28;20059;-58
2022/05/10 01:15:26;;;;;;;11.73;4.75;;;;;;;;;;4967913;28;20051;-58
2022/05/10 01:17:54;;;;;;;8.45;4.03;;;;;;;;;;4966876;28;20485;-57
2022/05/10 01:20:26;;;;;;;8.57;4.57;;;;;;;;;;4967275;28;20057;-58
2022/05/10 01:23:14;;;;;;;10.85;4.32;;;;;;;;;;4968084;28;20125;-58
2022/05/10 01:25:59;;;;;;;12.70;4.40;;;;;;;;;;4967808;28;20050;-58
2022/05/10 01:28:31;;;;;;;11.27;4.40;;;;;;;;;;4967631;28;20097;-58
2022/05/10 01:31:01;;;;;;;14.10;5.10;;;;;;;;;;4968061;28;20397;-58
2022/05/10 01:33:30;;;;;;;15.18;4.65;;;;;;;;;;4967596;28;20070;-58
2022/05/10 01:36:13;;;;;;;11.60;5.03;;;;;;;;;;4967069;28;20043;-58
2022/05/10 01:38:43;;;;;;;14.13;5.00;;;;;;;;;;4966376;28;20046;-58
2022/05/10 01:41:17;;;;;;;12.00;5.25;;;;;;;;;;4967615;28;20508;-58
2022/05/10 01:43:49;;;;;;;12.07;5.38;;;;;;;;;;4967838;28;20484;-58
2022/05/10 01:46:17;;;;;;;11.73;5.32;;;;;;;;;;4965413;28;20047;-58
2022/05/10 01:48:46;;;;;;;13.55;5.00;;;;;;;;;;4967298;28;20054;-58
2022/05/10 01:51:16;;;;;;;10.73;4.68;;;;;;;;;;4966752;28;20051;-58
2022/05/10 01:53:42;;;;;;;11.05;5.38;;;;;;;;;;4967649;28;20052;-58
2022/05/10 01:56:12;;;;;;;8.35;4.60;;;;;;;;;;4967175;28;20501;-58
2022/05/10 01:58:39;;;;;;;10.95;4.65;;;;;;;;;;4967243;28;20042;-58
2022/05/10 02:01:07;;;;;;;11.43;5.28;;;;;;;;;;4967028;28;20047;-59
2022/05/10 02:03:46;;;;;;;14.07;4.72;;;;;;;;;;4967883;28;20204;-58
2022/05/10 02:06:17;;;;;;;10.02;4.72;;;;;;;;;;4966274;28;20563;-58
2022/05/10 02:08:46;;;;;;;12.05;5.20;;;;;;;;;;4967159;28;20043;-58
2022/05/10 02:11:16;;;;;;;13.40;4.75;;;;;;;;;;4966701;28;20081;-58
2022/05/10 02:13:47;;;;;;;10.35;5.28;;;;;;;;;;4967394;28;20582;-58
2022/05/10 02:16:21;;;;;;;13.10;5.25;;;;;;;;;;4966987;28;20047;-58
2022/05/10 02:18:53;;;;;;;8.60;5.45;;;;;;;;;;4967219;28;20071;-58
2022/05/10 02:21:21;;;;;;;13.38;5.35;;;;;;;;;;4965904;28;20051;-58
2022/05/10 02:23:47;;;;;;;;;;;;;;;;;;4967707;28;20054;-58
2022/05/10 02:26:16;;;;;;;11.98;5.30;;;;;;;;;;4966935;28;19922;-58
2022/05/10 02:28:45;;;;;;;11.98;5.32;;;;;;;;;;4965925;28;20066;-58
2022/05/10 02:31:11;;;;;;;;;;;;;;;;;;4967859;28;20135;-58
2022/05/10 02:33:37;;;;;;;11.13;5.70;;;;;;;;;;4966397;28;20036;-59
2022/05/10 02:36:03;;;;;;;17.40;6.13;;;;;;;;;;4966677;28;20047;-58
2022/05/10 02:38:31;;;;;;;12.98;6.20;;;;;;;;;;4967139;28;20039;-59
2022/05/10 02:41:00;;;;;;;14.70;5.90;;;;;;;;;;4967080;28;20047;-58
2022/05/10 02:43:29;;;;;;;13.45;5.95;;;;;;;;;;4966763;28;20047;-58
2022/05/10 02:45:55;;;;;;;16.23;6.03;;;;;;;;;;4966692;28;20059;-58
2022/05/10 02:48:23;;;;;;;18.77;6.18;;;;;;;;;;4966764;28;20090;-58
2022/05/10 02:50:49;;;;;;;13.80;6.60;;;;;;;;;;4966281;28;20090;-58
2022/05/10 02:53:15;;;;;;;15.98;6.55;;;;;;;;;;4966847;28;20480;-59
2022/05/10 02:55:46;;;;;;;13.82;6.78;;;;;;;;;;4966220;28;20074;-58
2022/05/10 02:58:17;;;;;;;16.15;6.93;;;;;;;;;;4966561;28;20039;-58
2022/05/10 03:00:43;;;;;;;15.45;6.50;;;;;;;;;;4966767;28;20651;-58
2022/05/10 03:03:13;;;;;;;72.90;8.55;;;;;;;;;;4966728;28;20079;-58
2022/05/10 03:05:39;;;;;;;22.17;6.90;;;;;;;;;;4965925;28;20105;-58
2022/05/10 03:08:05;;;;;;;23.67;6.90;;;;;;;;;;4968552;28;20105;-60
2022/05/10 03:10:32;;;;;;;21.05;7.13;;;;;;;;;;4968910;28;20055;-58
2022/05/10 03:12:59;;;;;;;24.00;6.88;;;;;;;;;;4970668;28;20093;-58
2022/05/10 03:15:25;;;;;;;14.65;6.43;;;;;;;;;;4969959;28;20066;-58
2022/05/10 03:17:51;;;;;;;11.10;6.28;;;;;;;;;;4970282;28;20043;-58
2022/05/10 03:20:17;;;;;;;14.20;6.95;;;;;;;;;;4969103;28;20109;-59
2022/05/10 03:22:43;;;;;;;17.17;6.70;;;;;;;;;;4970400;28;20043;-58
2022/05/10 03:25:09;;;;;;;16.55;6.57;;;;;;;;;;4969463;28;20051;-58
2022/05/10 03:27:37;;;;;;;17.23;7.07;;;;;;;;;;4970083;28;20075;-58
2022/05/10 03:30:04;;;;;;;14.57;6.82;;;;;;;;;;4970268;28;20051;-58
2022/05/10 03:32:30;;;;;;;19.25;7.20;;;;;;;;;;4970319;28;20046;-58
2022/05/10 03:34:58;;;;;;;16.60;7.10;;;;;;;;;;4969117;28;20050;-58
2022/05/10 03:37:26;;;;;;;20.35;7.40;;;;;;;;;;4969493;28;20070;-58
2022/05/10 03:39:52;;;;;;;16.55;6.43;;;;;;;;;;4969959;28;20117;-58
2022/05/10 03:42:18;;;;;;;19.40;7.75;;;;;;;;;;4969478;28;20558;-58
2022/05/10 03:44:49;;;;;;;14.05;7.45;;;;;;;;;;4969675;28;20134;-58
2022/05/10 03:47:15;;;;;;;16.45;6.70;;;;;;;;;;4968510;28;20055;-58
2022/05/10 03:49:41;;;;;;;16.65;7.40;;;;;;;;;;4968914;28;20047;-58
2022/05/10 03:52:07;;;;;;;13.05;7.35;;;;;;;;;;4969070;28;20065;-58
2022/05/10 03:54:33;;;;;;;14.32;7.10;;;;;;;;;;4970060;28;20130;-58
2022/05/10 03:57:00;;;;;;;15.10;7.43;;;;;;;;;;4969835;28;20140;-58
2022/05/10 03:59:26;;;;;;;22.10;7.82;;;;;;;;;;4969395;28;20105;-58
2022/05/10 04:01:52;;;;;;;20.20;7.55;;;;;;;;;;4968215;28;20051;-58
2022/05/10 04:04:18;;;;;;;14.10;7.05;;;;;;;;;;4968201;28;20378;-58
2022/05/10 04:06:45;;;;;;;18.85;7.70;;;;;;;;;;4968876;28;20039;-58
2022/05/10 04:09:11;;;;;;;14.02;7.38;;;;;;;;;;4968926;28;20526;-58
2022/05/10 04:11:37;;;;;;;19.58;7.60;;;;;;;;;;4969308;28;20773;-58
2022/05/10 04:14:03;;;;;;;26.08;8.20;;;;;;;;;;4969695;28;20043;-58
2022/05/10 04:16:30;;;;;;;16.15;7.35;;;;;;;;;;4968846;28;20043;-58
2022/05/10 04:18:56;;;;;;;18.13;7.70;;;;;;;;;;4966525;28;20046;-58
2022/05/10 04:21:22;;;;;;;16.67;7.70;;;;;;;;;;4968716;28;20552;-58
2022/05/10 04:23:48;;;;;;;17.27;8.63;;;;;;;;;;4968040;28;20500;-58
2022/05/10 04:26:16;;;;;;;14.93;8.52;;;;;;;;;;4968174;28;20785;-59
2022/05/10 04:28:43;;;;;;;18.88;8.05;;;;;;;;;;4964170;28;20047;-58
2022/05/10 04:31:09;;;;;;;18.52;7.68;;;;;;;;;;4967914;28;20038;-58
2022/05/10 04:33:36;;;;;;;13.45;8.27;;;;;;;;;;4967240;28;20049;-58
2022/05/10 04:36:02;;;;;;;14.40;8.70;;;;;;;;;;4967416;28;20055;-58
2022/05/10 04:38:28;;;;;;;14.68;8.10;;;;;;;;;;4967643;28;20500;-58
2022/05/10 04:43:40;;;;;;;12.27;8.48;;;;;;;;;;4964469;28;20771;-58
2022/05/10 04:46:06;;;;;;;16.95;8.18;;;;;;;;;;4968171;28;20049;-59
2022/05/10 04:48:33;;;;;;;14.07;8.55;;;;;;;;;;4968809;28;20051;-58
2022/05/10 04:51:00;;;;;;;17.53;8.13;;;;;;;;;;4968260;28;20152;-58
2022/05/10 04:53:26;;;;;;;17.42;8.32;;;;;;;;;;4968445;28;20310;-58
2022/05/10 04:55:52;;;;;;;22.05;8.82;;;;;;;;;;4968867;28;20051;-58
2022/05/10 04:58:18;;;;;;;22.52;8.77;;;;;;;;;;4967897;28;20047;-58
2022/05/10 05:00:44;;;;;;;19.15;9.48;;;;;;;;;;4967723;28;20523;-58
2022/05/10 05:03:11;;;;;;;16.25;8.25;;;;;;;;;;4968355;28;20082;-58
2022/05/10 05:05:37;;;;;;;17.73;9.48;;;;;;;;;;4966680;28;20051;-58
2022/05/10 05:08:04;;;;;;;19.08;9.63;;;;;;;;;;4967773;28;20042;-58
2022/05/10 05:10:31;;;;;;;20.40;8.80;;;;;;;;;;4967604;28;20580;-58
2022/05/10 05:12:58;;;;;;;18.25;9.13;;;;;;;;;;4965847;28;20049;-58
2022/05/10 05:15:24;;;;;;;19.92;9.88;;;;;;;;;;4962382;28;20046;-58
2022/05/10 05:17:50;;;;;;;19.75;9.55;;;;;;;;;;4966864;28;20070;-58
2022/05/10 05:20:16;;;;;;;25.58;10.32;;;;;;;;;;4965218;28;20484;-58
2022/05/10 05:22:42;;;;;;;23.30;9.63;;;;;;;;;;4967079;28;20082;-58
2022/05/10 05:25:09;;;;;;;18.70;10.07;;;;;;;;;;4968108;28;20114;-58
2022/05/10 05:27:35;;;;;;;17.45;9.65;;;;;;;;;;4967131;28;20493;-58
2022/05/10 05:30:01;;;;;;;20.27;9.85;;;;;;;;;;4965518;28;20543;-57
2022/05/10 05:32:29;;;;;;;15.98;9.57;;;;;;;;;;4964075;28;20038;-58
2022/05/10 05:34:56;;;;;;;25.08;10.27;;;;;;;;;;4963065;28;20508;-58
2022/05/10 05:37:32;;;;;;;22.90;10.20;;;;;;;;;;4952058;28;20054;-58
2022/05/10 05:39:59;;;;;;;22.38;11.02;;;;;;;;;;4964777;28;20046;-58
2022/05/10 05:42:25;;;;;;;15.10;9.75;;;;;;;;;;4962698;28;20137;-58
2022/05/10 05:44:51;;;;;;;22.48;10.73;;;;;;;;;;4966053;28;20064;-58
2022/05/10 05:47:17;;;;;;;26.77;10.82;;;;;;;;;;4966171;28;20038;-58
2022/05/10 05:49:44;;;;;;;28.45;10.38;;;;;;;;;;4966076;28;20134;-57
2022/05/10 05:52:11;;;;;;;24.13;11.43;;;;;;;;;;4964856;28;20043;-58
2022/05/10 05:54:37;;;;;;;20.50;9.63;;;;;;;;;;4963740;28;20508;-58
2022/05/10 05:57:05;;;;;;;23.00;11.15;;;;;;;;;;4961502;28;20051;-58
2022/05/10 05:59:31;;;;;;;19.73;10.57;;;;;;;;;;4961331;28;20059;-58
2022/05/10 06:01:57;;;;;;;14.93;9.40;;;;;;;;;;4965742;28;20404;-58
2022/05/10 06:04:24;;;;;;;52.15;11.93;;;;;;;;;;4958976;28;20047;-58
2022/05/10 06:06:50;;;;;;;64.05;12.32;;;;;;;;;;4966618;28;20511;-58
2022/05/10 06:09:22;;;;;;;25.30;11.05;;;;;;;;;;4965286;28;20054;-59
2022/05/10 06:11:49;;;;;;;23.95;9.98;;;;;;;;;;4966144;28;20501;-58
2022/05/10 06:14:15;;;;;;;25.73;10.80;;;;;;;;;;4966566;28;20090;-59
2022/05/10 06:16:42;;;;;;;18.38;10.00;;;;;;;;;;4966930;28;20105;-58
2022/05/10 06:19:09;;;;;;;22.05;9.60;;;;;;;;;;4965840;28;21787;-59
2022/05/10 06:21:35;;;;;;;20.90;9.82;;;;;;;;;;4966390;28;20129;-59
2022/05/10 06:24:01;;;;;;;15.80;9.73;;;;;;;;;;4966948;28;20123;-58
2022/05/10 06:26:27;;;;;;;15.65;9.50;;;;;;;;;;4966582;28;20043;-58
2022/05/10 06:28:54;;;;;;;17.63;9.25;;;;;;;;;;4966268;28;20113;-58
2022/05/10 06:31:20;;;;;;;23.02;8.40;;;;;;;;;;4965952;28;20533;-58
2022/05/10 06:33:46;;;;;;;21.02;9.45;;;;;;;;;;4965957;28;20420;-58
2022/05/10 06:36:12;;;;;;;25.23;9.32;;;;;;;;;;4966394;28;20049;-58
2022/05/10 06:38:40;;;;;;;17.83;8.82;;;;;;;;;;4966041;28;20047;-59
2022/05/10 06:41:06;;;;;;;21.50;9.32;;;;;;;;;;4966783;28;20082;-59
2022/05/10 06:43:35;;;;;;;16.50;8.57;;;;;;;;;;4970895;28;20089;-59
2022/05/10 06:46:08;;;;;;;14.40;8.77;;;;;;;;;;4970569;28;20393;-58
2022/05/10 06:48:34;;;;;;;20.02;9.10;;;;;;;;;;4969666;28;20055;-58
2022/05/10 06:51:04;;;;;;;16.10;8.93;;;;;;;;;;4970627;28;20480;-58
2022/05/10 06:53:30;;;;;;;13.90;7.30;;;;;;;;;;4970131;28;20069;-59
2022/05/10 06:55:56;;;;;;;14.60;8.45;;;;;;;;;;4969084;28;20046;-58
2022/05/10 06:58:22;;;;;;;17.00;8.07;;;;;;;;;;4966165;28;20043;-58
2022/05/10 07:00:49;;;;;;;14.60;8.13;;;;;;;;;;4969607;28;20464;-58
2022/05/10 07:03:16;;;;;;;16.23;8.43;;;;;;;;;;4969776;28;20073;-59
2022/05/10 07:05:43;;;;;;;13.15;7.57;;;;;;;;;;4969517;28;20046;-59
2022/05/10 07:08:09;;;;;;;16.92;8.43;;;;;;;;;;4966137;28;20046;-59
2022/05/10 07:10:36;;;;;;;17.08;7.63;;;;;;;;;;4969307;28;20054;-59
2022/05/10 07:13:02;;;;;;;17.70;6.55;;;;;;;;;;4970392;28;20057;-58
2022/05/10 07:15:28;;;;;;;13.02;7.50;;;;;;;;;;4969897;28;20045;-59
2022/05/10 07:17:54;;;;;;;16.40;7.40;;;;;;;;;;4969775;28;20082;-58
2022/05/10 07:20:21;;;;;;;14.50;6.93;;;;;;;;;;4968175;28;20062;-59
2022/05/10 07:22:47;;;;;;;14.27;7.13;;;;;;;;;;4969747;28;20043;-59
2022/05/10 07:25:17;;;;;;;18.10;7.10;;;;;;;;;;4969612;28;20159;-59
2022/05/10 07:27:44;;;;;;;22.65;6.88;;;;;;;;;;4969759;28;20043;-59
2022/05/10 07:30:11;;;;;;;17.00;6.45;;;;;;;;;;4969676;28;20457;-59
2022/05/10 07:32:38;;;;;;;13.85;7.47;;;;;;;;;;4969261;28;20086;-59
2022/05/10 07:35:04;;;;;;;12.05;7.07;;;;;;;;;;4968779;28;20046;-59
2022/05/10 07:37:33;;;;;;;17.00;6.93;;;;;;;;;;4965930;28;20039;-59
2022/05/10 07:40:00;;;;;;;15.32;7.28;;;;;;;;;;4969204;28;20404;-59
2022/05/10 07:42:26;;;;;;;19.98;7.50;;;;;;;;;;4968983;28;20398;-59
2022/05/10 07:44:52;;;;;;;14.05;6.45;;;;;;;;;;4969420;28;20057;-59
2022/05/10 07:47:19;;;;;;;16.48;7.38;;;;;;;;;;4969061;28;20051;-59
2022/05/10 07:49:45;;;;;;;16.25;7.22;;;;;;;;;;4968567;28;20039;-59
2022/05/10 07:52:12;;;;;;;16.30;7.57;;;;;;;;;;4968864;28;20134;-59
2022/05/10 07:54:39;;;;;;;18.52;7.72;;;;;;;;;;4968430;28;20043;-59
2022/05/10 07:57:05;;;;;;;16.30;7.38;;;;;;;;;;4969726;28;20047;-61
2022/05/10 07:59:31;;;;;;;15.18;7.50;;;;;;;;;;4969233;28;20057;-59
2022/05/10 08:01:58;;;;;;;23.08;7.45;;;;;;;;;;4969308;28;20497;-59
2022/05/10 08:04:24;;;;;;;16.30;7.18;;;;;;;;;;4968068;28;20121;-59
2022/05/10 08:06:50;;;;;;;19.48;7.78;;;;;;;;;;4969112;28;20055;-59
2022/05/10 08:09:17;;;;;;;18.10;7.75;;;;;;;;;;4967664;28;20525;-59
2022/05/10 08:11:43;;;;;;;15.40;7.43;;;;;;;;;;4968685;28;20374;-59
2022/05/10 08:14:10;;;;;;;17.42;7.38;;;;;;;;;;4968819;28;20047;-59
2022/05/10 08:16:36;;;;;;;22.17;6.65;;;;;;;;;;4968196;28;20544;-59
2022/05/10 08:19:03;;;;;;;17.20;6.30;;;;;;;;;;4968281;28;20050;-59
2022/05/10 08:21:29;;;;;;;12.60;6.28;;;;;;;;;;4968445;28;20042;-59
2022/05/10 08:23:55;;;;;;;19.92;6.28;;;;;;;;;;4968888;28;20046;-59
2022/05/10 08:26:22;;;;;;;16.20;6.22;;;;;;;;;;4967944;28;20644;-59
2022/05/10 08:28:49;;;;;;;17.95;6.20;;;;;;;;;;4968261;28;20043;-59
2022/05/10 08:31:15;;;;;;;17.70;6.00;;;;;;;;;;4968017;28;20117;-60
2022/05/10 08:33:43;;;;;;;11.05;5.68;;;;;;;;;;4968136;28;20121;-59
2022/05/10 08:36:09;;;;;;;19.05;6.43;;;;;;;;;;4968459;28;20042;-59
2022/05/10 08:38:35;;;;;;;22.38;6.70;;;;;;;;;;4968122;28;20049;-60
2022/05/10 08:41:10;;;;;;;16.33;6.22;;;;;;;;;;4968895;28;20145;-59
2022/05/10 08:43:41;;;;;;;16.52;6.60;;;;;;;;;;4967352;28;20159;-59
2022/05/10 08:46:09;;;;;;;22.55;7.20;;;;;;;;;;4966841;28;20051;-60
2022/05/10 08:48:35;;;;;;;17.35;6.60;;;;;;;;;;4967547;28;20078;-60
2022/05/10 08:51:01;;;;;;;14.98;6.60;;;;;;;;;;4968436;28;20034;-59
2022/05/10 08:53:28;;;;;;;15.75;6.70;;;;;;;;;;4967741;28;20050;-59
2022/05/10 08:56:00;;;;;;;14.88;6.88;;;;;;;;;;4968194;28;20138;-59
2022/05/10 08:58:34;;;;;;;19.13;7.35;;;;;;;;;;4967215;28;20049;-59
2022/05/10 09:01:02;;;;;;;19.80;6.43;;;;;;;;;;4968475;28;20146;-58
2022/05/10 09:03:31;;;;;;;12.05;6.38;;;;;;;;;;4967087;28;20073;-59
2022/05/10 09:05:56;;;;;;;;;;;;;;;;;;4967457;28;20455;-59
2022/05/10 09:08:31;;;;;;;15.57;7.30;;;;;;;;;;4967200;28;20367;-59
2022/05/10 09:11:01;;;;;;;17.63;7.40;;;;;;;;;;4967068;28;20047;-59
2022/05/10 09:13:27;;;;;;;18.88;7.40;;;;;;;;;;4967824;28;20054;-58
2022/05/10 09:15:59;;;;;;;18.88;8.25;;;;;;;;;;4967715;28;20042;-58
2022/05/10 09:18:27;;;;;;;20.83;7.88;;;;;;;;;;4966357;28;20078;-58
2022/05/10 09:21:09;;;;;;;13.88;7.13;;;;;;;;;;4967489;28;20150;-58
2022/05/10 09:23:41;;;;;;;21.67;8.52;;;;;;;;;;4967216;28;20046;-59
2022/05/10 09:26:08;;;;;;;13.50;8.07;;;;;;;;;;4966122;28;20501;-59
2022/05/10 09:28:39;;;;;;;21.52;8.65;;;;;;;;;;4967351;28;20047;-58
2022/05/10 09:36:53;;;;;;;23.95;9.20;;;;;;;;;;4967344;28;20039;-58
2022/05/10 09:39:21;;;;;;;14.32;8.82;;;;;;;;;;4967063;28;20206;-59
2022/05/10 09:41:52;;;;;;;17.88;9.50;;;;;;;;;;4967025;28;20043;-59
2022/05/10 09:44:21;;;;;;;21.10;9.88;;;;;;;;;;4967099;28;20042;-58
2022/05/10 09:46:47;;;;;;;18.25;9.43;;;;;;;;;;4963576;28;20676;-59
2022/05/10 09:49:34;;;;;;;20.77;8.85;;;;;;;;;;4966321;28;20039;-58
2022/05/10 09:52:00;;;;;;;22.55;9.00;;;;;;;;;;4967163;28;20038;-58
2022/05/10 09:54:35;;;;;;;14.88;7.05;;;;;;;;;;4966513;28;20043;-58
2022/05/10 09:57:01;;;;;;;16.42;7.93;;;;;;;;;;4967096;28;20070;-58
2022/05/10 09:59:29;;;;;;;15.98;7.18;;;;;;;;;;4966613;28;20046;-59
2022/05/10 10:01:57;;;;;;;18.08;8.25;;;;;;;;;;4966817;28;20564;-59
2022/05/10 10:04:31;;;;;;;14.73;8.60;;;;;;;;;;4965674;28;20493;-59
2022/05/10 10:07:09;;;;;;;13.80;7.45;;;;;;;;;;4966633;28;20089;-59
2022/05/10 10:09:37;;;;;;;16.70;8.43;;;;;;;;;;4965005;28;20051;-59
2022/05/10 10:12:04;;;;;;;23.15;8.48;;;;;;;;;;4967490;28;20042;-59
2022/05/10 10:14:41;;;;;;;18.75;8.10;;;;;;;;;;4966835;28;20090;-59
2022/05/10 10:17:16;;;;;;;16.30;8.13;;;;;;;;;;4965962;28;20097;-59
2022/05/10 10:19:45;;;;;;;13.35;7.65;;;;;;;;;;4965736;28;20318;-59
2022/05/10 10:22:11;;;;;;;;;;;;;;;;;;4965649;28;20074;-59
2022/05/10 10:24:39;;;;;;;21.15;8.00;;;;;;;;;;4966363;28;19922;-59
2022/05/10 10:27:11;;;;;;;15.68;8.00;;;;;;;;;;4966465;28;20049;-58
2022/05/10 10:29:43;;;;;;;25.33;7.05;;;;;;;;;;4966210;28;20049;-59
2022/05/10 10:32:12;;;;;;;11.50;7.00;;;;;;;;;;4966549;28;20537;-59
2022/05/10 10:34:43;;;;;;;12.70;6.25;;;;;;;;;;4965907;28;20057;-59
2022/05/10 10:37:11;;;;;;;18.10;6.88;;;;;;;;;;4966488;28;20126;-59
2022/05/10 10:39:43;;;;;;;12.75;6.90;;;;;;;;;;4965614;28;20504;-59
2022/05/10 10:42:15;;;;;;;14.50;6.45;;;;;;;;;;4964747;28;20042;-59
2022/05/10 10:44:44;;;;;;;17.77;7.78;;;;;;;;;;4965959;28;20058;-59
2022/05/10 10:47:20;;;;;;;11.63;6.57;;;;;;;;;;4966515;28;20039;-59
2022/05/10 10:49:47;;;;;;;15.20;8.80;;;;;;;;;;4965800;28;20123;-59
2022/05/10 10:52:14;;;;;;;17.90;7.60;;;;;;;;;;4966086;28;20081;-60
2022/05/10 10:54:40;;;;;;;30.65;9.07;;;;;;;;;;4963250;28;20043;-59
2022/05/10 10:57:13;;;;;;;15.40;7.90;;;;;;;;;;4961356;28;20043;-56
2022/05/10 10:59:39;;;;;;;12.85;7.20;;;;;;;;;;4959264;28;20047;-60
2022/05/10 11:02:18;;;;;;;14.80;7.63;;;;;;;;;;4959102;28;20054;-60
2022/05/10 11:05:02;;;;;;;13.70;7.43;;;;;;;;;;4958901;28;20042;-60
2022/05/10 11:07:35;;;;;;;18.08;8.20;;;;;;;;;;4965915;28;20047;-60
2022/05/10 11:10:11;;;;;;;14.88;7.15;;;;;;;;;;4966501;28;20368;-60
2022/05/10 11:12:37;;;;;;;15.93;6.65;;;;;;;;;;4966034;28;20046;-60
2022/05/10 11:15:12;;;;;;;10.77;6.75;;;;;;;;;;4966361;28;20129;-59
2022/05/10 11:17:48;;;;;;;16.75;7.63;;;;;;;;;;4962838;28;20049;-60
2022/05/10 11:20:42;;;;;;;10.98;6.72;;;;;;;;;;4961235;28;20127;-60
2022/05/10 11:23:08;;;;;;;13.82;6.32;;;;;;;;;;4959170;28;20489;-60
2022/05/10 11:25:35;;;;;;;72.72;8.73;;;;;;;;;;4954710;28;20540;-59
2022/05/10 11:28:01;;;;;;;12.55;5.97;;;;;;;;;;4957240;28;20071;-59
2022/05/10 11:30:37;;;;;;;12.85;5.97;;;;;;;;;;4964467;28;20416;-59
2022/05/10 11:33:13;;;;;;;15.57;5.93;;;;;;;;;;4961873;28;20133;-59
2022/05/10 11:35:46;;;;;;;11.85;6.30;;;;;;;;;;4968091;28;20477;-59
2022/05/10 11:38:19;;;;;;;15.88;6.43;;;;;;;;;;4969274;28;20047;-59
2022/05/10 11:40:53;;;;;;;13.38;6.53;;;;;;;;;;4968607;28;20043;-59
2022/05/10 11:43:31;;;;;;;12.98;6.35;;;;;;;;;;4967806;28;20051;-59
2022/05/10 11:45:58;;;;;;;;;;;;;;;;;;4969898;28;20051;-59
2022/05/10 11:48:36;;;;;;;26.83;7.22;;;;;;;;;;4968352;28;19976;-59
2022/05/10 11:53:55;;;;;;;15.48;6.07;;;;;;;;;;4969232;28;20078;-59
2022/05/10 11:56:21;;;;;;;12.90;4.97;;;;;;;;;;4968634;28;20459;-59
2022/05/10 11:58:49;;;;;;;17.25;5.65;;;;;;;;;;4968751;28;20151;-59
2022/05/10 12:01:35;;;;;;;13.10;4.60;;;;;;;;;;4968265;28;20101;-60
2022/05/10 12:04:01;;;;;;;10.90;4.18;;;;;;;;;;4967009;28;20505;-60
2022/05/10 12:06:27;;;;;;;14.25;4.72;;;;;;;;;;4968710;28;20048;-59
2022/05/10 12:08:54;;;;;;;13.98;4.13;;;;;;;;;;4965385;28;20705;-59
2022/05/10 12:11:31;;;;;;;13.25;4.57;;;;;;;;;;4968464;28;20125;-59
2022/05/10 12:22:12;;;;;;;22.92;5.78;;;;;;;;;;4968195;28;20141;-59
2022/05/10 12:24:44;;;;;;;13.57;4.60;;;;;;;;;;4968018;28;20465;-59
2022/05/10 12:27:11;;;;;;;13.73;6.13;;;;;;;;;;4968665;28;20334;-59
2022/05/10 12:29:38;;;;;;;14.80;5.07;;;;;;;;;;4968134;28;20046;-59
2022/05/10 12:32:23;;;;;;;13.90;4.57;;;;;;;;;;4969550;28;20039;-59
2022/05/10 12:34:53;;;;;;;17.33;5.13;;;;;;;;;;4966467;28;20057;-59
2022/05/10 12:37:26;;;;;;;12.45;4.32;;;;;;;;;;4968459;28;20126;-59
2022/05/10 12:40:00;;;;;;;13.35;3.88;;;;;;;;;;4968120;28;20504;-59
2022/05/10 12:42:36;;;;;;;11.48;3.88;;;;;;;;;;4968082;28;20046;-59
2022/05/10 12:45:21;;;;;;;11.02;4.70;;;;;;;;;;4968326;28;20469;-59
2022/05/10 12:47:55;;;;;;;20.15;5.10;;;;;;;;;;4965707;28;20035;-59
2022/05/10 12:50:30;;;;;;;14.23;5.05;;;;;;;;;;4967899;28;20054;-59
2022/05/10 12:52:57;;;;;;;13.38;4.88;;;;;;;;;;4968116;28;20259;-59
2022/05/10 12:55:26;;;;;;;13.13;5.05;;;;;;;;;;4967793;28;20055;-59
2022/05/10 12:58:01;;;;;;;14.75;4.40;;;;;;;;;;4968163;28;20035;-59
2022/05/10 13:00:33;;;;;;;19.30;4.95;;;;;;;;;;4967404;28;20050;-59
2022/05/10 13:03:08;;;;;;;14.77;4.20;;;;;;;;;;4967524;28;20046;-59
2022/05/10 13:05:47;;;;;;;12.43;4.50;;;;;;;;;;4964029;28;20059;-59
2022/05/10 13:08:22;;;;;;;11.98;4.78;;;;;;;;;;4965416;28;20046;-59
2022/05/10 13:10:49;;;;;;;15.55;5.50;;;;;;;;;;4964004;28;20457;-57
2022/05/10 13:13:18;;;;;;;19.13;4.65;;;;;;;;;;4965334;28;20101;-58
2022/05/10 13:15:45;;;;;;;12.25;3.92;;;;;;;;;;4965124;28;20121;-57
2022/05/10 13:18:17;;;;;;;12.90;3.80;;;;;;;;;;4964526;28;20027;-58
2022/05/10 13:20:45;;;;;;;13.43;3.72;;;;;;;;;;4965231;28;20496;-58
2022/05/10 13:23:12;;;;;;;5.80;3.10;;;;;;;;;;4965096;28;20042;-58
2022/05/10 13:25:40;;;;;;;12.02;4.82;;;;;;;;;;4958907;28;20058;-59
2022/05/10 13:28:08;;;;;;;14.65;3.90;;;;;;;;;;4958499;28;20134;-58
2022/05/10 13:30:35;;;;;;;8.38;3.22;;;;;;;;;;4959168;28;20046;-58
2022/05/10 13:33:01;;;;;;;12.30;2.95;;;;;;;;;;4958735;28;20043;-58
2022/05/10 13:35:30;;;;;;;18.65;3.83;;;;;;;;;;4964372;28;20046;-58
2022/05/10 13:37:56;;;;;;;11.13;3.28;;;;;;;;;;4965128;28;20043;-59
2022/05/10 13:40:27;;;;;;;12.02;2.60;;;;;;;;;;4964503;28;20086;-59
2022/05/10 13:42:53;;;;;;;8.90;2.75;;;;;;;;;;4965023;28;20038;-59
2022/05/10 13:45:21;;;;;;;22.05;2.95;;;;;;;;;;4964841;28;20509;-59
2022/05/10 13:47:48;;;;;;;10.05;2.40;;;;;;;;;;4963150;28;21895;-59
2022/05/10 13:50:21;;;;;;;17.10;3.03;;;;;;;;;;4960816;28;20047;-61
2022/05/10 13:52:49;;;;;;;11.02;2.30;;;;;;;;;;4964197;28;20035;-61
2022/05/10 13:55:16;;;;;;;11.75;2.13;;;;;;;;;;4962728;28;20050;-61
2022/05/10 13:57:49;;;;;;;13.23;2.63;;;;;;;;;;4964560;28;20035;-61
2022/05/10 14:00:15;;;;;;;12.77;2.65;;;;;;;;;;4963921;28;20058;-61
2022/05/10 14:02:41;;;;;;;5.25;2.10;;;;;;;;;;4962550;28;20047;-60
2022/05/10 14:05:16;;;;;;;6.95;2.10;;;;;;;;;;4965154;28;20047;-60
2022/05/10 14:07:45;;;;;;;10.35;2.60;;;;;;;;;;4960436;28;20050;-60
2022/05/10 14:10:14;;;;;;;7.13;2.17;;;;;;;;;;4960504;28;20094;-60
2022/05/10 14:12:51;;;;;;;12.93;2.20;;;;;;;;;;4960280;28;20054;-60
2022/05/10 14:15:21;;;;;;;6.78;1.98;;;;;;;;;;4959467;28;20039;-60
2022/05/10 14:17:52;;;;;;;10.68;2.42;;;;;;;;;;4957378;28;20043;-60
2022/05/10 14:20:24;;;;;;;14.07;2.28;;;;;;;;;;4962137;28;20046;-60
2022/05/10 14:22:53;;;;;;;11.65;2.20;;;;;;;;;;4958961;28;20047;-60
2022/05/10 14:25:21;;;;;;;11.85;2.50;;;;;;;;;;4959973;28;20050;-60
2022/05/10 14:27:59;;;;;;;8.35;2.00;;;;;;;;;;4966718;28;20070;-60
2022/05/10 14:30:27;;;;;;;5.43;1.52;;;;;;;;;;4966575;28;20046;-59
2022/05/10 14:32:53;;;;;;;15.40;1.77;;;;;;;;;;4965181;28;20137;-59
2022/05/10 14:35:26;;;;;;;8.35;1.45;;;;;;;;;;4966078;28;20051;-60
2022/05/10 14:37:53;;;;;;;8.80;1.40;;;;;;;;;;4962352;28;20126;-60
2022/05/10 14:40:26;;;;;;;4.90;1.00;;;;;;;;;;4958151;28;20063;-60
2022/05/10 14:42:54;;;;;;;6.47;3.00;;;;;;;;;;4958259;28;20128;-59
2022/05/10 14:45:31;;;;;;;19.67;1.27;;;;;;;;;;4965642;28;20051;-60
2022/05/10 14:47:58;;;;;;;15.32;1.10;;;;;;;;;;4962024;28;20057;-59
2022/05/10 14:50:42;;;;;;;8.02;0.80;;;;;;;;;;4964561;28;20047;-59
2022/05/10 14:53:15;;;;;;;3.15;0.80;;;;;;;;;;4966054;28;20133;-59
2022/05/10 14:55:44;;;;;;;5.00;0.70;;;;;;;;;;4961901;28;20038;-60
2022/05/10 14:58:12;;;;;;;8.15;0.98;;;;;;;;;;4966153;28;20050;-60
2022/05/10 15:00:41;;;;;;;2.60;0.73;;;;;;;;;;4966260;28;20039;-61